AirNav   Air Wisconsin Up To $57,000 Bonus
 
 1640 users online  

00WA Howell Airport
Longbranch, Washington, USA

GOING TO LONGBRANCH?


FAA INFORMATION EFFECTIVE 04 NOVEMBER 2021

Location

FAA Identifier: 00WA
Lat/Long: 47-10-42.3500N 122-46-18.4800W
47-10.705833N 122-46.308000W
47.1784306,-122.7718000
(estimated)
Elevation: 150 ft. / 46 m (estimated)
Variation: 19E (1995)
From city: 2 miles SW of LONGBRANCH, WA
Time zone: UTC -7 (UTC -8 during Standard Time)
Zip code: 98351

Airport Operations

Airport use: Private use. Permission required prior to landing
Activation date: 06/2000
Control tower: no
ARTCC: SEATTLE CENTER
FSS: SEATTLE FLIGHT SERVICE STATION
Attendance: ON CALL
Wind indicator: yes
Segmented circle: no

Airport Communications

WX ASOS at TIW (10 nm NE): PHONE 253-858-6507
WX ASOS at TCM (12 nm E): PHONE 253-982-3434
WX ASOS at OLM (14 nm SW): 135.725 (360-754-0781)
WX ASOS at SHN (16 nm W): 119.275 (360 426-6332)
WX AWOS-3PT at PWT (19 nm N): 121.2 (360-674-2811)

Nearby radio navigation aids

VOR radial/distance  VOR name  Freq  Var
OLMr004/13.5OLYMPIA VORTAC113.4019E
SEAr212/24.3SEATTLE VORTAC116.8019E

Airport Services

Runway Information

Runway 8/26

Dimensions: 1600 x 75 ft. / 488 x 23 m
Surface: turf, in good condition
RUNWAY 8  RUNWAY 26
Traffic pattern: rightleft

Airport Ownership and Management from official FAA records

Ownership: Privately-owned
Owner: CLIFFORD HOWELL
PO BOX 27
LAKEBAY, WA 98349
Phone 253-304-8078
Manager: CLIFFORD HOWELL
PO BOX 27
LAKEBAY, WA 98349
Phone 253-304-8078

Airport Operational Statistics

Aircraft based on the field: 1
Single engine airplanes: 1
    

Additional Remarks

RY 26 UNUSABLE FOR LNDG AND RY 08 UNUSABLE FOR TKOF DUE TO 48 FT DOWNSLOPE TO THE WEST.
FOR CD CTC SEATTLE APCH AT 206-214-4794.

Instrument Procedures

There are no published instrument procedures at 00WA.

Some nearby airports with instrument procedures:

KTIW - Tacoma Narrows Airport (10 nm NE)
KGRF - Gray Army Airfield (Joint Base Lewis-McChord) (10 nm SE)
KTCM - McChord Field Airport (Joint Base Lewis-McChord) (12 nm E)
KOLM - Olympia Regional Airport (14 nm SW)
KSHN - Sanderson Field Airport (16 nm W)
KPWT - Bremerton National Airport (19 nm N)
 
Loc | Ops | Rwys | IFR | FBO | Links
Com | Nav | Svcs | Stats | Notes
Area around 00WA (Howell Airport)
 
Road maps at: MapQuest Bing Google
 
Aerial photo
WARNING: Photo may not be current or correct
Aerial photo of 00WA (Howell Airport)
Do you have a better or more recent aerial photo of Howell Airport that you would like to share? If so, please send us your photo.

 
Sectional chart

 
Airport distance calculator
Flying to Howell Airport? Find the distance to fly.

From to 00WA

Sunrise and sunset
Times for 30-Nov-2021
 Local
(UTC-8)
 Zulu
(UTC)
Morning civil twilight07:0215:02
Sunrise07:3715:37
Sunset16:2300:23
Evening civil twilight16:5800:58

Current date and time
Zulu (UTC)  30-Nov-2021 18:41:54
Local (UTC-8)  30-Nov-2021 10:41:54
 
METAR
KTIW 
9nm NE 
301813Z 21008G17KT 180V250 3SM -RA BR SCT009 BKN033 OVC040 10/09 A3024 RMK AO2 RAB07 P0000 T01000094
KGRF 
11nm SE 
301816Z 16011KT 5SM -RA BR FEW022 FEW027 OVC034 11/10 A3023 RMK TWR VIS 1 SM
KTCM 
13nm E 
301806Z AUTO 20007KT 10SM -RA SCT026 OVC033 11/11 A3024 RMK AO2 RAB01 SLP245 $
KOLM 
14nm S 
301810Z 21007KT 2SM -RA BR FEW015 BKN025 OVC033 11/09 A3025 RMK AO2 P0000 T01110094
KSHN 
15nm W 
301753Z AUTO 22005KT 4SM -RA BR BKN014 OVC019 11/10 A3020 RMK AO2 SLP228 P0003 60023 T01060100 10111 20106 53016
KPWT 
19nm N 
301756Z AUTO 22011KT 8SM -RA BKN005 OVC012 10/09 A3022 RMK AO2 RAB21 CIG 003V008 SLP239 P0000 60006 T01000094 10106 20094 53022
TAF
KGRF 
11nm SE 
301300Z 3013/0119 20009KT 9999 -SHRA SCT010 OVC020 QNH3014INS BECMG 3015/3016 20010G15KT 9999 -SHRA BKN020 QNH3016INS BECMG 3022/3023 20009KT 9999 -SHRA BKN020 QNH3020INS BECMG 3023/3024 20009KT 9999 NSW BKN030 QNH3015INS TX11/3022Z TN10/3013Z
KTCM 
13nm E 
301742Z 3017/0119 21010G15KT 9000 -SHRA BKN025 OVC040 610909 510103 QNH3015INS BECMG 3019/3020 20012G20KT 9000 -SHRA BKN020 OVC040 611004 510006 QNH3018INS BECMG 0105/0106 20010KT 9999 NSW BKN025 OVC050 621008 510102 QNH3019INS BECMG 0111/0112 20007KT 9999 BKN015 OVC050 621008 510102 QNH3018INS TX15/3021Z TN09/0113Z
KOLM 
14nm S 
301827Z 3018/0118 21007KT 2SM -RA BR FEW015 BKN025 OVC035 FM302200 22008KT 5SM -RA OVC012 FM010700 21007KT 3SM BR VCSH OVC007
KPWT 
19nm N 
301828Z 3018/0118 21010KT P6SM -RA BKN005 BKN012 OVC040 FM302100 19013G22KT 4SM -RA BR OVC015 FM010400 19013G20KT 5SM -RA BR OVC020 FM011000 19010KT 6SM BR VCSH BKN012
NOTAMs
Click for the latest NOTAMs
NOTAMs are issued by the DoD/FAA and will open in a separate window not controlled by AirNav.

 

 
 

Would you like to see your business listed on this page?

 If your business provides an interesting product or service to pilots, flight crews, aircraft, or users of the Howell Airport, you should consider listing it here.  To start the listing process, click on the button below
 
Add a business
 

Other Pages about Howell Airport

Update a link
 
Copyright © AirNav, LLC. All rights reserved. Privacy Policy  Contact